createdAt,value
2022-08-29T00:00:17.858Z,35.12
2022-08-29T00:00:42.391Z,34.28
2022-08-29T00:01:05.620Z,34.74
2022-08-29T00:01:27.349Z,33.93
2022-08-29T00:01:50.107Z,34.14
2022-08-29T00:02:11.924Z,34.48
2022-08-29T00:02:33.711Z,34.47
2022-08-29T00:02:59.994Z,34.69
2022-08-29T00:03:25.247Z,34.00
2022-08-29T00:03:49.354Z,33.80
2022-08-29T00:04:11.915Z,33.74
2022-08-29T00:04:33.722Z,34.40
2022-08-29T00:04:57.771Z,34.44
2022-08-29T00:05:25.125Z,34.12
2022-08-29T00:05:50.074Z,33.40
2022-08-29T00:06:13.459Z,33.18
2022-08-29T00:06:36.162Z,34.17
2022-08-29T00:06:58.318Z,34.08
2022-08-29T00:07:20.323Z,34.26
2022-08-29T00:07:42.110Z,34.36
2022-08-29T00:08:06.109Z,34.66
2022-08-29T00:08:27.968Z,34.99
2022-08-29T00:08:49.735Z,34.95
2022-08-29T00:09:11.712Z,34.61
2022-08-29T00:09:33.413Z,34.78
2022-08-29T00:09:56.040Z,34.60
2022-08-29T00:10:17.988Z,34.85
2022-08-29T00:10:41.439Z,35.31
2022-08-29T00:11:05.954Z,35.02
2022-08-29T00:11:28.647Z,34.95
2022-08-29T00:11:50.457Z,34.78
2022-08-29T00:12:12.133Z,34.48
2022-08-29T00:12:36.028Z,35.36
2022-08-29T00:12:59.031Z,35.01
2022-08-29T00:13:21.077Z,35.20
2022-08-29T00:13:42.861Z,35.22
2022-08-29T00:14:04.662Z,34.84
2022-08-29T00:14:27.649Z,35.55
2022-08-29T00:14:49.380Z,35.77
2022-08-29T00:15:12.491Z,35.48
2022-08-29T00:15:42.224Z,35.01
2022-08-29T00:16:08.709Z,34.93
2022-08-29T00:16:30.555Z,35.40
2022-08-29T00:16:52.339Z,35.39
2022-08-29T00:17:14.067Z,34.99
2022-08-29T00:17:35.759Z,35.32
2022-08-29T00:17:58.364Z,34.82
2022-08-29T00:18:20.459Z,35.21
2022-08-29T00:18:42.693Z,34.92
2022-08-29T00:19:04.372Z,34.72
2022-08-29T00:19:27.032Z,34.86
2022-08-29T00:19:48.879Z,34.66
2022-08-29T00:20:13.770Z,34.66
2022-08-29T00:20:37.762Z,35.10
2022-08-29T00:20:59.432Z,34.68
2022-08-29T00:21:21.148Z,34.72
2022-08-29T00:21:42.833Z,34.91
2022-08-29T00:22:06.008Z,35.14
2022-08-29T00:22:28.007Z,34.72
2022-08-29T00:22:49.657Z,34.89
2022-08-29T00:23:11.960Z,34.89
2022-08-29T00:23:33.997Z,34.99
2022-08-29T00:23:56.697Z,34.97
2022-08-29T00:24:29.141Z,34.98
2022-08-29T00:24:50.869Z,35.24
2022-08-29T00:25:14.220Z,35.17
2022-08-29T00:25:36.922Z,35.06
2022-08-29T00:25:58.556Z,35.43
2022-08-29T00:26:20.236Z,35.70
2022-08-29T00:26:41.937Z,35.07
2022-08-29T00:27:04.674Z,35.03
2022-08-29T00:27:27.413Z,35.18
2022-08-29T00:27:51.141Z,35.04
2022-08-29T00:28:13.253Z,34.90
2022-08-29T00:28:34.973Z,35.07
2022-08-29T00:28:57.629Z,35.31
2022-08-29T00:29:20.916Z,34.90
2022-08-29T00:29:43.948Z,35.19
2022-08-29T00:30:07.773Z,35.16
2022-08-29T00:30:31.325Z,34.96
2022-08-29T00:30:52.971Z,34.93
2022-08-29T00:31:14.870Z,35.06
2022-08-29T00:31:37.108Z,35.18
2022-08-29T00:31:58.989Z,35.18
2022-08-29T00:32:21.593Z,35.15
2022-08-29T00:32:43.513Z,35.07
2022-08-29T00:33:05.420Z,35.01
2022-08-29T00:33:27.240Z,35.15
2022-08-29T00:33:51.665Z,34.53
2022-08-29T00:34:13.333Z,35.11
2022-08-29T00:34:35.049Z,35.27
2022-08-29T00:34:57.004Z,35.31
2022-08-29T00:35:22.735Z,35.21
2022-08-29T00:35:47.377Z,35.20
2022-08-29T00:36:10.350Z,34.91
2022-08-29T00:36:32.017Z,35.32
2022-08-29T00:36:54.840Z,34.82
2022-08-29T00:37:17.712Z,34.77
2022-08-29T00:37:39.953Z,34.88
2022-08-29T00:38:05.501Z,35.04
2022-08-29T00:38:27.915Z,35.24
2022-08-29T00:38:51.270Z,35.28
2022-08-29T00:39:14.080Z,35.25
2022-08-29T00:39:35.772Z,35.11
2022-08-29T00:39:58.261Z,35.49
2022-08-29T00:40:24.444Z,35.20
2022-08-29T00:40:51.684Z,35.70
2022-08-29T00:41:13.781Z,35.64
2022-08-29T00:41:35.764Z,35.87
2022-08-29T00:41:57.460Z,35.25
2022-08-29T00:42:20.126Z,35.19
2022-08-29T00:42:41.945Z,35.39
2022-08-29T00:43:06.938Z,35.34
2022-08-29T00:43:30.844Z,35.60
2022-08-29T00:43:53.476Z,35.50
2022-08-29T00:44:15.181Z,35.83
2022-08-29T00:44:36.848Z,35.63
2022-08-29T00:44:58.545Z,35.33
2022-08-29T00:45:20.424Z,35.97
2022-08-29T00:45:50.931Z,35.96
2022-08-29T00:46:31.471Z,35.86
2022-08-29T00:46:55.900Z,36.25
2022-08-29T00:47:22.936Z,35.76
2022-08-29T00:47:49.351Z,36.12
2022-08-29T00:48:15.109Z,36.28
2022-08-29T00:48:39.049Z,36.06
2022-08-29T00:49:09.337Z,35.79
2022-08-29T00:49:36.647Z,35.62
2022-08-29T00:49:58.492Z,35.92
2022-08-29T00:50:27.248Z,36.48
2022-08-29T00:50:53.612Z,36.79
2022-08-29T00:51:19.392Z,36.57
2022-08-29T00:51:41.661Z,36.24
2022-08-29T00:52:08.769Z,36.34
2022-08-29T00:52:33.713Z,36.12
2022-08-29T00:52:57.803Z,35.64
2022-08-29T00:53:29.135Z,35.87
2022-08-29T00:53:55.025Z,36.53
2022-08-29T00:54:17.930Z,35.76
2022-08-29T00:54:41.329Z,36.03
2022-08-29T00:55:11.052Z,36.09
2022-08-29T00:55:36.301Z,36.06
2022-08-29T00:55:59.049Z,35.98
2022-08-29T00:56:21.585Z,35.85
2022-08-29T00:56:44.713Z,35.83
2022-08-29T00:57:08.402Z,35.65
2022-08-29T00:57:32.522Z,36.03
2022-08-29T00:57:57.517Z,35.59
2022-08-29T00:58:26.803Z,36.19
2022-08-29T00:58:54.448Z,36.08
2022-08-29T00:59:20.570Z,35.74
2022-08-29T00:59:42.599Z,36.14
2022-08-29T01:00:07.198Z,36.12
2022-08-29T01:00:29.944Z,35.86
2022-08-29T01:00:52.250Z,36.03
2022-08-29T01:01:14.054Z,35.96
2022-08-29T01:01:36.082Z,35.74
2022-08-29T01:01:59.006Z,35.86
2022-08-29T01:02:20.826Z,35.70
2022-08-29T01:02:43.390Z,35.69
2022-08-29T01:03:05.260Z,35.92
2022-08-29T01:03:32.747Z,36.29
2022-08-29T01:03:54.516Z,35.93
2022-08-29T01:04:24.082Z,35.77
2022-08-29T01:04:47.516Z,36.21
2022-08-29T01:05:11.365Z,35.89
2022-08-29T01:05:33.923Z,35.86
2022-08-29T01:05:55.837Z,35.73
2022-08-29T01:06:20.112Z,35.79
2022-08-29T01:06:43.244Z,35.75
2022-08-29T01:07:05.879Z,35.50
2022-08-29T01:07:27.730Z,35.68
2022-08-29T01:07:51.886Z,35.63
2022-08-29T01:08:13.927Z,35.87
2022-08-29T01:08:36.056Z,35.72
2022-08-29T01:08:58.494Z,35.70
2022-08-29T01:09:20.968Z,35.54
2022-08-29T01:09:47.026Z,35.30
2022-08-29T01:10:12.714Z,35.52
2022-08-29T01:10:55.075Z,35.96
2022-08-29T01:11:36.377Z,36.07
2022-08-29T01:12:16.297Z,35.86
2022-08-29T01:12:38.441Z,35.64
2022-08-29T01:13:00.422Z,35.74
2022-08-29T01:13:27.542Z,35.81
2022-08-29T01:13:53.037Z,35.88
2022-08-29T01:14:15.367Z,35.60
2022-08-29T01:14:38.757Z,35.98
2022-08-29T01:15:06.554Z,35.65
2022-08-29T01:15:30.508Z,35.71
2022-08-29T01:15:52.703Z,35.83
2022-08-29T01:16:16.177Z,35.88
2022-08-29T01:16:38.749Z,35.81
2022-08-29T01:17:03.923Z,35.95
2022-08-29T01:17:28.016Z,35.98
2022-08-29T01:17:49.964Z,35.76
2022-08-29T01:18:15.320Z,35.61
2022-08-29T01:18:40.233Z,35.86
2022-08-29T01:19:16.088Z,35.90
2022-08-29T01:19:45.907Z,36.19
2022-08-29T01:20:19.209Z,36.32
2022-08-29T01:20:56.572Z,36.19
2022-08-29T01:21:29.924Z,36.01
2022-08-29T01:22:02.117Z,36.08
2022-08-29T01:22:52.732Z,36.10
2022-08-29T01:23:21.047Z,35.87
2022-08-29T01:23:50.377Z,35.87
2022-08-29T01:24:25.281Z,36.25
2022-08-29T01:24:50.914Z,35.91
2022-08-29T01:25:16.359Z,35.88
2022-08-29T01:25:41.649Z,36.02
2022-08-29T01:26:04.991Z,35.96
2022-08-29T01:26:29.474Z,35.86
2022-08-29T01:26:51.102Z,36.11
2022-08-29T01:27:14.467Z,35.70
2022-08-29T01:27:39.210Z,36.21
2022-08-29T01:28:06.452Z,36.47
2022-08-29T01:28:32.153Z,36.30
2022-08-29T01:28:54.492Z,36.42
2022-08-29T01:29:16.561Z,36.04
2022-08-29T01:29:38.350Z,36.65
2022-08-29T01:30:01.008Z,36.38
2022-08-29T01:30:23.636Z,36.19
2022-08-29T01:31:00.604Z,36.08
2022-08-29T01:31:37.818Z,36.13
2022-08-29T01:32:06.926Z,36.18
2022-08-29T01:32:28.731Z,36.01
2022-08-29T01:32:51.434Z,36.08
2022-08-29T01:33:13.144Z,36.05
2022-08-29T01:33:41.545Z,36.13
2022-08-29T01:34:04.453Z,36.43
2022-08-29T01:34:29.226Z,36.36
2022-08-29T01:34:50.934Z,36.57
2022-08-29T01:35:13.162Z,36.27
2022-08-29T01:35:34.922Z,36.15
2022-08-29T01:35:57.640Z,36.50
2022-08-29T01:36:22.483Z,36.35
2022-08-29T01:36:47.381Z,36.04
2022-08-29T01:37:12.222Z,36.46
2022-08-29T01:37:36.851Z,36.06
2022-08-29T01:37:58.555Z,36.21
2022-08-29T01:38:27.571Z,36.14
2022-08-29T01:38:50.789Z,35.85
2022-08-29T01:39:12.810Z,35.82
2022-08-29T01:39:39.401Z,35.82
2022-08-29T01:40:01.209Z,36.05
2022-08-29T01:40:29.618Z,35.80
2022-08-29T01:40:51.315Z,35.85
2022-08-29T01:41:14.553Z,36.22
2022-08-29T01:41:41.626Z,36.39
2022-08-29T01:42:06.759Z,36.03
2022-08-29T01:42:29.689Z,35.71
2022-08-29T01:42:58.476Z,36.05
2022-08-29T01:43:20.133Z,35.76
2022-08-29T01:43:44.286Z,35.87
2022-08-29T01:44:12.377Z,36.14
2022-08-29T01:44:34.537Z,36.16
2022-08-29T01:44:58.756Z,36.21
2022-08-29T01:45:20.876Z,36.11
2022-08-29T01:45:42.681Z,36.03
2022-08-29T01:46:06.509Z,36.14
2022-08-29T01:46:31.266Z,36.23
2022-08-29T01:47:00.256Z,36.04
2022-08-29T01:47:26.588Z,35.94
2022-08-29T01:47:49.308Z,35.98
2022-08-29T01:48:10.977Z,35.86
2022-08-29T01:48:32.633Z,36.27
2022-08-29T01:48:54.423Z,36.43
2022-08-29T01:49:18.190Z,35.98
2022-08-29T01:49:41.142Z,36.17
2022-08-29T01:50:05.733Z,36.40
2022-08-29T01:50:28.020Z,36.02
2022-08-29T01:50:50.186Z,36.02
2022-08-29T01:51:16.784Z,36.20
2022-08-29T01:51:38.546Z,36.35
2022-08-29T01:52:00.861Z,36.37
2022-08-29T01:52:24.863Z,36.27
2022-08-29T01:52:46.559Z,36.23
2022-08-29T01:53:08.204Z,36.02
2022-08-29T01:53:29.855Z,36.13
2022-08-29T01:53:52.927Z,36.40
2022-08-29T01:54:15.618Z,36.38
2022-08-29T01:54:40.038Z,36.07
2022-08-29T01:55:01.751Z,35.77
2022-08-29T01:55:24.463Z,35.92
2022-08-29T01:55:46.139Z,36.01
2022-08-29T01:56:12.466Z,36.32
2022-08-29T01:56:37.988Z,36.42
2022-08-29T01:57:01.413Z,36.11
2022-08-29T01:57:24.111Z,36.03
2022-08-29T01:57:45.777Z,35.66
2022-08-29T01:58:09.714Z,35.86
2022-08-29T01:58:31.411Z,35.91
2022-08-29T01:58:54.511Z,35.79
2022-08-29T01:59:20.100Z,36.02
2022-08-29T01:59:43.401Z,36.13
2022-08-29T02:00:08.944Z,35.99
2022-08-29T02:00:30.772Z,35.82
2022-08-29T02:00:53.715Z,35.69
2022-08-29T02:01:18.964Z,36.01
2022-08-29T02:01:47.888Z,35.87
2022-08-29T02:02:15.439Z,35.58
2022-08-29T02:02:38.696Z,36.10
2022-08-29T02:03:02.072Z,36.35
2022-08-29T02:03:25.804Z,36.01
2022-08-29T02:03:47.793Z,35.91
2022-08-29T02:04:09.688Z,36.22
2022-08-29T02:04:31.635Z,36.54
2022-08-29T02:04:58.638Z,36.45
2022-08-29T02:05:22.952Z,36.19
2022-08-29T02:05:47.505Z,36.82
2022-08-29T02:06:10.331Z,36.83
2022-08-29T02:06:33.302Z,36.39
2022-08-29T02:06:56.120Z,36.46
2022-08-29T02:07:20.270Z,36.38
2022-08-29T02:07:42.895Z,36.35
2022-08-29T02:08:05.179Z,36.12
2022-08-29T02:08:26.824Z,36.10
2022-08-29T02:08:48.627Z,36.42
2022-08-29T02:09:11.206Z,36.32
2022-08-29T02:09:34.022Z,36.48
2022-08-29T02:09:56.978Z,36.38
2022-08-29T02:10:18.785Z,36.39
2022-08-29T02:10:40.458Z,35.73
2022-08-29T02:11:03.164Z,35.60
2022-08-29T02:11:25.021Z,36.32
2022-08-29T02:11:48.210Z,36.43
2022-08-29T02:12:10.294Z,36.04
2022-08-29T02:12:32.943Z,36.22
2022-08-29T02:12:54.660Z,35.98
2022-08-29T02:13:16.314Z,36.38
2022-08-29T02:13:38.292Z,36.14
2022-08-29T02:13:59.997Z,36.02
2022-08-29T02:14:23.593Z,36.32
2022-08-29T02:14:45.486Z,36.31
2022-08-29T02:15:07.625Z,36.48
2022-08-29T02:15:29.290Z,36.44
2022-08-29T02:15:52.728Z,36.04
2022-08-29T02:16:15.396Z,36.18
2022-08-29T02:16:37.203Z,36.36
2022-08-29T02:16:58.901Z,36.14
2022-08-29T02:17:21.713Z,36.21
2022-08-29T02:17:43.442Z,36.38
2022-08-29T02:18:06.860Z,36.51
2022-08-29T02:18:28.608Z,36.60
2022-08-29T02:18:51.700Z,36.38
2022-08-29T02:19:13.997Z,36.32
2022-08-29T02:19:37.037Z,36.54
2022-08-29T02:19:58.704Z,36.51
2022-08-29T02:20:21.384Z,36.62
2022-08-29T02:20:43.140Z,36.66
2022-08-29T02:21:05.025Z,36.64
2022-08-29T02:21:30.012Z,36.57
2022-08-29T02:21:52.376Z,36.57
2022-08-29T02:22:15.255Z,36.67
2022-08-29T02:22:38.876Z,36.42
2022-08-29T02:23:01.163Z,36.54
2022-08-29T02:23:30.832Z,36.47
2022-08-29T02:23:54.480Z,37.13
2022-08-29T02:24:26.296Z,37.14
2022-08-29T02:24:48.376Z,36.66
2022-08-29T02:25:30.681Z,37.00
2022-08-29T02:25:53.290Z,36.79
2022-08-29T02:26:15.924Z,36.63
2022-08-29T02:26:37.612Z,36.72
2022-08-29T02:26:59.786Z,36.71
2022-08-29T02:27:21.438Z,37.09
2022-08-29T02:27:43.418Z,37.21
2022-08-29T02:28:06.043Z,36.91
2022-08-29T02:28:27.806Z,36.98
2022-08-29T02:28:51.632Z,36.96
2022-08-29T02:29:13.437Z,36.86
2022-08-29T02:29:37.915Z,37.13
2022-08-29T02:30:00.068Z,37.23
2022-08-29T02:30:22.486Z,36.57
2022-08-29T02:30:49.910Z,37.38
2022-08-29T02:31:16.828Z,37.56
2022-08-29T02:31:39.071Z,37.48
2022-08-29T02:32:00.902Z,37.37
2022-08-29T02:32:22.536Z,37.26
2022-08-29T02:32:45.257Z,37.30
2022-08-29T02:33:08.011Z,37.08
2022-08-29T02:33:31.261Z,37.11
2022-08-29T02:33:54.345Z,37.03
2022-08-29T02:34:17.151Z,37.23
2022-08-29T02:34:39.972Z,36.85
2022-08-29T02:35:05.956Z,37.23
2022-08-29T02:35:29.090Z,37.19
2022-08-29T02:35:53.352Z,37.42
2022-08-29T02:36:15.479Z,37.26
2022-08-29T02:36:37.837Z,37.25
2022-08-29T02:37:00.957Z,37.32
2022-08-29T02:37:22.616Z,37.65
2022-08-29T02:37:44.284Z,37.40
2022-08-29T02:38:06.366Z,37.27
2022-08-29T02:38:29.846Z,37.33
2022-08-29T02:38:51.525Z,37.13
2022-08-29T02:39:13.344Z,37.07
2022-08-29T02:39:35.013Z,37.21
2022-08-29T02:39:57.625Z,37.48
2022-08-29T02:40:24.671Z,37.47
2022-08-29T02:40:53.181Z,37.31
2022-08-29T02:41:15.412Z,37.06
2022-08-29T02:41:37.103Z,37.19
2022-08-29T02:41:59.749Z,37.56
2022-08-29T02:42:21.365Z,37.65
2022-08-29T02:42:43.051Z,37.50
2022-08-29T02:43:05.789Z,37.20
2022-08-29T02:43:27.848Z,37.50
2022-08-29T02:43:50.541Z,37.74
2022-08-29T02:44:12.487Z,37.59
2022-08-29T02:44:34.224Z,37.31
2022-08-29T02:44:55.913Z,37.70
2022-08-29T02:45:18.675Z,37.73
2022-08-29T02:45:41.848Z,37.78
2022-08-29T02:46:04.685Z,37.63
2022-08-29T02:46:26.571Z,37.51
2022-08-29T02:46:50.192Z,37.43
2022-08-29T02:47:11.961Z,37.89
2022-08-29T02:47:35.277Z,37.49
2022-08-29T02:47:57.656Z,37.81
2022-08-29T02:48:19.668Z,37.94
2022-08-29T02:48:43.014Z,37.94
2022-08-29T02:49:21.549Z,37.61
2022-08-29T02:49:43.685Z,37.66
2022-08-29T02:50:07.625Z,37.78
2022-08-29T02:50:30.881Z,37.77
2022-08-29T02:50:55.406Z,37.56
2022-08-29T02:51:22.960Z,37.84
2022-08-29T02:51:45.587Z,37.79
2022-08-29T02:52:08.528Z,38.05
2022-08-29T02:52:34.098Z,38.07
2022-08-29T02:52:58.578Z,37.76
2022-08-29T02:53:22.044Z,37.66
2022-08-29T02:53:44.733Z,38.08
2022-08-29T02:54:06.622Z,38.06
2022-08-29T02:54:28.302Z,38.22
2022-08-29T02:54:49.968Z,38.44
2022-08-29T02:55:17.778Z,38.08
2022-08-29T02:55:41.315Z,38.28
2022-08-29T02:56:03.500Z,38.02
2022-08-29T02:56:25.649Z,38.19
2022-08-29T02:56:48.516Z,37.85
2022-08-29T02:57:10.204Z,37.65
2022-08-29T02:57:31.905Z,37.57
2022-08-29T02:57:54.802Z,37.52
2022-08-29T02:58:16.647Z,37.85
2022-08-29T02:58:39.380Z,38.05
2022-08-29T02:59:01.167Z,37.70
2022-08-29T02:59:22.830Z,37.89
2022-08-29T02:59:44.515Z,38.15
2022-08-29T03:00:09.988Z,37.77
2022-08-29T03:00:34.561Z,37.52
2022-08-29T03:00:56.675Z,37.55
2022-08-29T03:01:20.367Z,38.19
2022-08-29T03:01:42.155Z,38.01
2022-08-29T03:02:05.286Z,38.28
2022-08-29T03:02:27.756Z,38.26
2022-08-29T03:02:50.137Z,38.35
2022-08-29T03:03:12.146Z,38.20
2022-08-29T03:03:33.833Z,38.20
2022-08-29T03:03:56.450Z,38.09
2022-08-29T03:04:18.132Z,37.92
2022-08-29T03:04:41.855Z,38.01
2022-08-29T03:05:04.416Z,38.27
2022-08-29T03:05:29.745Z,37.88
2022-08-29T03:05:51.496Z,37.51
2022-08-29T03:06:13.153Z,38.29
2022-08-29T03:06:34.883Z,38.36
2022-08-29T03:06:57.656Z,38.27
2022-08-29T03:07:19.448Z,38.15
2022-08-29T03:07:41.402Z,37.78
2022-08-29T03:08:07.126Z,37.83
2022-08-29T03:08:29.941Z,38.09
2022-08-29T03:08:51.969Z,37.97
2022-08-29T03:09:15.885Z,37.71
2022-08-29T03:09:37.558Z,37.88
2022-08-29T03:10:01.025Z,38.02
2022-08-29T03:10:23.566Z,38.04
2022-08-29T03:10:46.664Z,37.96
2022-08-29T03:11:08.469Z,38.17
2022-08-29T03:11:31.111Z,38.35
2022-08-29T03:11:56.038Z,38.26
2022-08-29T03:12:17.777Z,38.22
2022-08-29T03:12:40.008Z,38.07
2022-08-29T03:13:01.821Z,38.14
2022-08-29T03:13:24.525Z,38.16
2022-08-29T03:13:46.216Z,38.36
2022-08-29T03:14:08.811Z,38.33
2022-08-29T03:14:31.125Z,37.88
2022-08-29T03:14:54.017Z,38.10
2022-08-29T03:15:16.783Z,38.72
2022-08-29T03:15:38.593Z,38.04
2022-08-29T03:16:02.206Z,38.07
2022-08-29T03:16:25.032Z,38.50
2022-08-29T03:16:46.805Z,38.60
2022-08-29T03:17:08.460Z,38.87
2022-08-29T03:17:31.051Z,38.89
2022-08-29T03:17:54.068Z,38.46
2022-08-29T03:18:17.395Z,38.21
2022-08-29T03:18:39.110Z,38.51
2022-08-29T03:19:00.742Z,38.38
2022-08-29T03:19:22.914Z,38.70
2022-08-29T03:19:44.632Z,38.63
2022-08-29T03:20:09.924Z,38.62
2022-08-29T03:20:34.290Z,38.69
2022-08-29T03:20:56.316Z,38.42
2022-08-29T03:21:20.926Z,38.87
2022-08-29T03:21:44.422Z,38.82
2022-08-29T03:22:06.337Z,38.57
2022-08-29T03:22:28.652Z,38.74
2022-08-29T03:22:51.248Z,38.48
2022-08-29T03:23:13.933Z,38.78
2022-08-29T03:23:35.850Z,38.96
2022-08-29T03:23:57.532Z,38.75
2022-08-29T03:24:26.953Z,38.61
2022-08-29T03:24:49.968Z,38.39
2022-08-29T03:25:12.806Z,38.45
2022-08-29T03:25:35.089Z,38.62
2022-08-29T03:25:59.588Z,38.68
2022-08-29T03:26:23.004Z,38.96
2022-08-29T03:26:44.937Z,38.65
2022-08-29T03:27:16.258Z,38.66
2022-08-29T03:27:38.868Z,38.65
2022-08-29T03:28:01.724Z,38.63
2022-08-29T03:28:23.439Z,38.84
2022-08-29T03:28:45.317Z,38.48
2022-08-29T03:29:06.982Z,38.38
2022-08-29T03:29:29.704Z,38.21
2022-08-29T03:29:51.402Z,38.53
2022-08-29T03:30:15.778Z,39.03
2022-08-29T03:30:37.503Z,38.76
2022-08-29T03:31:00.275Z,38.46
2022-08-29T03:31:22.095Z,38.32
2022-08-29T03:31:43.874Z,38.50
2022-08-29T03:32:06.259Z,38.33
2022-08-29T03:32:29.605Z,38.68
2022-08-29T03:32:54.565Z,38.97
2022-08-29T03:33:17.531Z,38.69
2022-08-29T03:33:39.169Z,38.81
2022-08-29T03:34:01.981Z,38.51
2022-08-29T03:34:23.904Z,38.53
2022-08-29T03:34:45.603Z,38.39
2022-08-29T03:35:09.769Z,38.71
2022-08-29T03:35:33.082Z,38.67
2022-08-29T03:35:55.171Z,39.14
2022-08-29T03:36:18.087Z,39.13
2022-08-29T03:36:39.845Z,38.93
2022-08-29T03:37:01.902Z,38.76
2022-08-29T03:37:24.406Z,38.77
2022-08-29T03:37:47.532Z,39.08
2022-08-29T03:38:10.225Z,39.29
2022-08-29T03:38:31.881Z,39.04
2022-08-29T03:38:54.033Z,38.88
2022-08-29T03:39:15.730Z,38.76
2022-08-29T03:39:38.239Z,38.99
2022-08-29T03:40:01.985Z,38.88
2022-08-29T03:40:24.931Z,39.26
2022-08-29T03:40:46.669Z,39.17
2022-08-29T03:41:09.813Z,38.91
2022-08-29T03:41:32.647Z,39.42
2022-08-29T03:41:54.461Z,39.21
2022-08-29T03:42:16.172Z,38.95
2022-08-29T03:42:37.870Z,39.04
2022-08-29T03:43:03.212Z,39.08
2022-08-29T03:43:24.943Z,38.93
2022-08-29T03:43:46.591Z,39.17
2022-08-29T03:44:08.332Z,39.26
2022-08-29T03:44:31.956Z,39.50
2022-08-29T03:44:54.615Z,39.63
2022-08-29T03:45:18.520Z,39.53
2022-08-29T03:45:40.152Z,39.28
2022-08-29T03:46:02.927Z,39.40
2022-08-29T03:46:25.480Z,39.69
2022-08-29T03:46:47.425Z,39.69
2022-08-29T03:47:09.817Z,39.52
2022-08-29T03:47:31.504Z,39.55
2022-08-29T03:47:55.225Z,39.62
2022-08-29T03:48:17.099Z,39.43
2022-08-29T03:48:38.742Z,39.26
2022-08-29T03:49:00.556Z,39.50
2022-08-29T03:49:23.234Z,39.65
2022-08-29T03:49:45.448Z,39.55
2022-08-29T03:50:08.470Z,39.87
2022-08-29T03:50:30.122Z,39.90
2022-08-29T03:50:56.281Z,39.67
2022-08-29T03:51:19.148Z,39.46
2022-08-29T03:51:41.432Z,38.82
2022-08-29T03:52:04.335Z,39.35
2022-08-29T03:52:26.282Z,39.32
2022-08-29T03:52:49.873Z,39.73
2022-08-29T03:53:11.765Z,39.79
2022-08-29T03:53:33.561Z,40.01
2022-08-29T03:53:55.590Z,40.17
2022-08-29T03:54:17.386Z,39.75
2022-08-29T03:54:40.120Z,39.71
2022-08-29T03:55:01.841Z,39.67
2022-08-29T03:55:23.676Z,39.81
2022-08-29T03:55:46.275Z,39.92
2022-08-29T03:56:18.106Z,40.00
2022-08-29T03:56:40.646Z,40.16
2022-08-29T03:57:04.402Z,40.17
2022-08-29T03:57:26.319Z,40.26
2022-08-29T03:57:50.862Z,39.97
2022-08-29T03:58:12.567Z,40.06
2022-08-29T03:58:34.369Z,40.14
2022-08-29T03:58:56.708Z,39.84
2022-08-29T03:59:20.129Z,40.01
2022-08-29T03:59:42.924Z,39.84
2022-08-29T04:00:10.539Z,39.82
2022-08-29T04:00:33.632Z,40.18
2022-08-29T04:00:56.246Z,39.89
2022-08-29T04:01:19.263Z,39.86
2022-08-29T04:01:41.028Z,40.01
2022-08-29T04:02:03.322Z,39.92
2022-08-29T04:02:25.067Z,39.72
2022-08-29T04:02:49.280Z,39.71
2022-08-29T04:03:11.190Z,39.71
2022-08-29T04:03:32.991Z,40.02
2022-08-29T04:03:55.956Z,39.71
2022-08-29T04:04:34.689Z,39.30
2022-08-29T04:05:09.787Z,40.07
2022-08-29T04:05:33.976Z,40.11
2022-08-29T04:05:55.902Z,39.95
2022-08-29T04:06:18.811Z,39.73
2022-08-29T04:06:41.647Z,40.11
2022-08-29T04:07:06.316Z,39.59
2022-08-29T04:07:28.309Z,39.92
2022-08-29T04:07:52.470Z,39.84
2022-08-29T04:08:14.274Z,39.86
2022-08-29T04:08:38.488Z,39.88
2022-08-29T04:09:00.848Z,39.77
2022-08-29T04:09:22.459Z,39.99
2022-08-29T04:09:45.321Z,39.97
2022-08-29T04:10:12.665Z,39.97
2022-08-29T04:10:39.451Z,40.58
2022-08-29T04:11:01.171Z,40.55
2022-08-29T04:11:28.122Z,40.58
2022-08-29T04:11:49.788Z,40.32
2022-08-29T04:12:13.156Z,40.50
2022-08-29T04:12:35.756Z,40.39
2022-08-29T04:12:59.039Z,40.49
2022-08-29T04:13:20.927Z,40.32
2022-08-29T04:13:42.931Z,40.33
2022-08-29T04:14:05.566Z,40.30
2022-08-29T04:14:27.277Z,40.29
2022-08-29T04:14:49.046Z,40.17
2022-08-29T04:15:11.303Z,40.45
2022-08-29T04:15:35.365Z,40.36
2022-08-29T04:15:57.088Z,40.45
2022-08-29T04:16:22.678Z,40.39
2022-08-29T04:16:48.423Z,40.48
2022-08-29T04:17:12.245Z,40.50
2022-08-29T04:17:34.385Z,40.34
2022-08-29T04:17:58.441Z,40.29
2022-08-29T04:18:21.553Z,40.25
2022-08-29T04:18:45.256Z,40.45
2022-08-29T04:19:06.935Z,40.20
2022-08-29T04:19:30.957Z,40.46
2022-08-29T04:19:52.932Z,40.33
2022-08-29T04:20:16.033Z,40.65
2022-08-29T04:20:39.400Z,40.27
2022-08-29T04:21:02.236Z,40.14
2022-08-29T04:21:25.021Z,40.08
2022-08-29T04:21:48.859Z,40.33
2022-08-29T04:22:10.555Z,40.11
2022-08-29T04:22:33.987Z,40.24
2022-08-29T04:22:57.456Z,40.25
2022-08-29T04:23:20.121Z,40.29
2022-08-29T04:23:42.141Z,40.18
2022-08-29T04:24:03.894Z,40.07
2022-08-29T04:24:25.579Z,39.92
2022-08-29T04:24:47.266Z,40.04
2022-08-29T04:25:13.318Z,40.32
2022-08-29T04:25:37.376Z,40.25
2022-08-29T04:26:19.160Z,40.31
2022-08-29T04:26:43.683Z,40.27
2022-08-29T04:27:05.450Z,40.08
2022-08-29T04:27:27.674Z,40.08
2022-08-29T04:27:49.724Z,39.86
2022-08-29T04:28:14.635Z,39.95
2022-08-29T04:28:36.464Z,40.02
2022-08-29T04:28:58.092Z,40.28
2022-08-29T04:29:19.774Z,40.32
2022-08-29T04:29:41.463Z,40.27
2022-08-29T04:30:06.945Z,40.09
2022-08-29T04:30:28.642Z,40.02
2022-08-29T04:30:54.762Z,40.20
2022-08-29T04:31:20.171Z,40.30
2022-08-29T04:31:44.316Z,40.19
2022-08-29T04:32:06.105Z,40.22
2022-08-29T04:32:27.774Z,40.15
2022-08-29T04:32:49.696Z,39.74
2022-08-29T04:33:22.542Z,39.73
2022-08-29T04:33:44.656Z,39.79
2022-08-29T04:34:08.476Z,39.78
2022-08-29T04:34:30.181Z,40.09
2022-08-29T04:34:57.320Z,40.11
2022-08-29T04:35:19.749Z,40.34
2022-08-29T04:35:41.627Z,40.01
2022-08-29T04:36:06.049Z,40.01
2022-08-29T04:36:28.249Z,39.78
2022-08-29T04:36:51.043Z,39.78
2022-08-29T04:37:13.867Z,40.07
2022-08-29T04:37:35.805Z,40.41
2022-08-29T04:37:57.662Z,40.32
2022-08-29T04:38:20.871Z,40.45
2022-08-29T04:38:42.804Z,40.34
2022-08-29T04:39:05.980Z,40.46
2022-08-29T04:39:27.657Z,40.29
2022-08-29T04:39:49.420Z,40.21
2022-08-29T04:40:15.958Z,40.48
2022-08-29T04:40:39.718Z,40.42
2022-08-29T04:41:06.004Z,40.38
2022-08-29T04:41:27.939Z,40.67
2022-08-29T04:41:52.109Z,40.69
2022-08-29T04:42:18.246Z,40.22
2022-08-29T04:42:42.483Z,40.34
2022-08-29T04:43:05.240Z,40.54
2022-08-29T04:43:27.409Z,40.55
2022-08-29T04:43:49.201Z,40.54
2022-08-29T04:44:12.396Z,40.43
2022-08-29T04:44:34.581Z,40.48
2022-08-29T04:44:57.962Z,40.43
2022-08-29T04:45:21.640Z,40.57
2022-08-29T04:45:43.377Z,40.36
2022-08-29T04:46:06.227Z,40.42
2022-08-29T04:46:30.642Z,40.45
2022-08-29T04:46:52.394Z,40.38
2022-08-29T04:47:14.407Z,40.26
2022-08-29T04:47:36.358Z,40.49
2022-08-29T04:48:03.055Z,40.52
2022-08-29T04:48:25.195Z,40.85
2022-08-29T04:48:47.459Z,40.98
2022-08-29T04:49:09.405Z,40.94
2022-08-29T04:49:31.080Z,40.87
2022-08-29T04:49:57.087Z,41.01
2022-08-29T04:50:21.465Z,40.79
2022-08-29T04:50:43.115Z,41.39
2022-08-29T04:51:06.371Z,41.49
2022-08-29T04:51:28.649Z,40.90
2022-08-29T04:51:52.732Z,40.58
2022-08-29T04:52:14.384Z,40.79
2022-08-29T04:52:37.485Z,40.80
2022-08-29T04:52:59.572Z,40.31
2022-08-29T04:53:21.228Z,41.04
2022-08-29T04:53:43.344Z,41.16
2022-08-29T04:54:07.141Z,40.74
2022-08-29T04:54:29.265Z,40.25
2022-08-29T04:54:50.983Z,40.67
2022-08-29T04:55:16.145Z,40.69
2022-08-29T04:55:39.908Z,40.96
2022-08-29T04:56:06.457Z,40.70
2022-08-29T04:56:28.116Z,40.87
2022-08-29T04:56:52.885Z,41.01
2022-08-29T04:57:19.402Z,40.93
2022-08-29T04:57:42.780Z,40.45
2022-08-29T04:58:06.198Z,40.71
2022-08-29T04:58:31.815Z,40.99
2022-08-29T04:58:53.511Z,40.91
2022-08-29T04:59:15.811Z,40.82
2022-08-29T04:59:38.725Z,40.51
2022-08-29T05:00:00.677Z,40.88
2022-08-29T05:00:26.797Z,41.01
2022-08-29T05:00:48.447Z,40.67
2022-08-29T05:01:14.273Z,40.46
2022-08-29T05:01:36.595Z,40.40
2022-08-29T05:01:59.823Z,40.55
2022-08-29T05:02:21.930Z,40.79
2022-08-29T05:02:45.515Z,40.61
2022-08-29T05:03:07.851Z,40.52
2022-08-29T05:03:30.775Z,40.71
2022-08-29T05:03:54.235Z,40.79